sensor_id;sensor_type;location;lat;lon;timestamp;pressure;altitude;pressure_sealevel;temperature;humidity
72636;BME280;60679;48.888;15.544;2023-03-21T00:00:56;96245.91;;;6.90;63.78
72636;BME280;60679;48.888;15.544;2023-03-21T00:03:22;96252.13;;;6.91;63.83
72636;BME280;60679;48.888;15.544;2023-03-21T00:05:51;96251.50;;;6.95;63.84
72636;BME280;60679;48.888;15.544;2023-03-21T00:08:22;96249.03;;;7.01;63.75
72636;BME280;60679;48.888;15.544;2023-03-21T00:11:02;96248.84;;;7.09;63.84
72636;BME280;60679;48.888;15.544;2023-03-21T00:13:29;96247.03;;;7.16;63.92
72636;BME280;60679;48.888;15.544;2023-03-21T00:16:11;96257.78;;;7.22;63.91
72636;BME280;60679;48.888;15.544;2023-03-21T00:18:46;96253.88;;;7.25;63.98
72636;BME280;60679;48.888;15.544;2023-03-21T00:21:18;96250.75;;;7.21;63.83
72636;BME280;60679;48.888;15.544;2023-03-21T00:23:44;96256.94;;;7.22;63.96
72636;BME280;60679;48.888;15.544;2023-03-21T00:26:11;96256.72;;;7.23;63.96
72636;BME280;60679;48.888;15.544;2023-03-21T00:28:37;96253.03;;;7.24;64.02
72636;BME280;60679;48.888;15.544;2023-03-21T00:31:03;96246.41;;;7.27;63.97
72636;BME280;60679;48.888;15.544;2023-03-21T00:33:29;96246.03;;;7.30;64.25
72636;BME280;60679;48.888;15.544;2023-03-21T00:35:54;96252.63;;;7.34;64.06
72636;BME280;60679;48.888;15.544;2023-03-21T00:38:20;96243.53;;;7.35;64.01
72636;BME280;60679;48.888;15.544;2023-03-21T00:40:45;96251.19;;;7.38;64.32
72636;BME280;60679;48.888;15.544;2023-03-21T00:43:11;96245.63;;;7.39;64.23
72636;BME280;60679;48.888;15.544;2023-03-21T00:45:37;96249.94;;;7.40;64.22
72636;BME280;60679;48.888;15.544;2023-03-21T00:48:03;96243.75;;;7.40;64.17
72636;BME280;60679;48.888;15.544;2023-03-21T00:50:29;96246.66;;;7.38;64.22
72636;BME280;60679;48.888;15.544;2023-03-21T00:52:56;96248.72;;;7.36;64.48
72636;BME280;60679;48.888;15.544;2023-03-21T00:55:22;96240.84;;;7.35;64.35
72636;BME280;60679;48.888;15.544;2023-03-21T00:57:48;96244.56;;;7.34;64.31
72636;BME280;60679;48.888;15.544;2023-03-21T01:00:14;96246.03;;;7.30;64.69
72636;BME280;60679;48.888;15.544;2023-03-21T01:02:40;96243.34;;;7.30;64.62
72636;BME280;60679;48.888;15.544;2023-03-21T01:05:37;96242.06;;;7.26;64.87
72636;BME280;60679;48.888;15.544;2023-03-21T01:08:22;96244.13;;;7.17;64.60
72636;BME280;60679;48.888;15.544;2023-03-21T01:10:49;96234.22;;;7.11;64.90
72636;BME280;60679;48.888;15.544;2023-03-21T01:13:19;96240.16;;;7.07;65.06
72636;BME280;60679;48.888;15.544;2023-03-21T01:15:47;96233.97;;;7.00;65.25
72636;BME280;60679;48.888;15.544;2023-03-21T01:18:15;96225.28;;;6.91;65.29
72636;BME280;60679;48.888;15.544;2023-03-21T01:20:42;96224.63;;;6.82;65.23
72636;BME280;60679;48.888;15.544;2023-03-21T01:23:09;96222.53;;;6.71;65.45
72636;BME280;60679;48.888;15.544;2023-03-21T01:25:34;96228.03;;;6.63;65.43
72636;BME280;60679;48.888;15.544;2023-03-21T01:28:00;96229.25;;;6.54;65.47
72636;BME280;60679;48.888;15.544;2023-03-21T01:30:25;96230.25;;;6.47;65.78
72636;BME280;60679;48.888;15.544;2023-03-21T01:32:51;96224.44;;;6.36;65.83
72636;BME280;60679;48.888;15.544;2023-03-21T01:35:16;96229.16;;;6.34;65.85
72636;BME280;60679;48.888;15.544;2023-03-21T01:37:42;96230.56;;;6.30;65.87
72636;BME280;60679;48.888;15.544;2023-03-21T01:40:09;96227.72;;;6.32;66.15
72636;BME280;60679;48.888;15.544;2023-03-21T01:42:37;96222.38;;;6.38;66.09
72636;BME280;60679;48.888;15.544;2023-03-21T01:45:57;96222.38;;;6.38;66.04
72636;BME280;60679;48.888;15.544;2023-03-21T01:47:50;96214.97;;;6.41;66.03
72636;BME280;60679;48.888;15.544;2023-03-21T01:50:16;96208.78;;;6.40;66.08
72636;BME280;60679;48.888;15.544;2023-03-21T01:52:42;96212.47;;;6.39;66.18
72636;BME280;60679;48.888;15.544;2023-03-21T01:55:12;96213.69;;;6.36;66.20
72636;BME280;60679;48.888;15.544;2023-03-21T01:57:46;96209.59;;;6.41;66.44
72636;BME280;60679;48.888;15.544;2023-03-21T02:00:14;96216.03;;;6.46;66.34
72636;BME280;60679;48.888;15.544;2023-03-21T02:02:42;96203.81;;;6.44;66.18
72636;BME280;60679;48.888;15.544;2023-03-21T02:05:18;96203.00;;;6.43;66.50
72636;BME280;60679;48.888;15.544;2023-03-21T02:07:47;96205.69;;;6.43;66.54
72636;BME280;60679;48.888;15.544;2023-03-21T02:10:15;96195.19;;;6.48;66.50
72636;BME280;60679;48.888;15.544;2023-03-21T02:12:41;96196.81;;;6.49;66.37
72636;BME280;60679;48.888;15.544;2023-03-21T02:15:07;96195.19;;;6.48;66.58
72636;BME280;60679;48.888;15.544;2023-03-21T02:17:44;96193.53;;;6.47;66.52
72636;BME280;60679;48.888;15.544;2023-03-21T02:32:22;96196.13;;;6.27;67.09
72636;BME280;60679;48.888;15.544;2023-03-21T02:35:06;96196.94;;;6.28;67.13
72636;BME280;60679;48.888;15.544;2023-03-21T02:37:48;96197.56;;;6.30;66.99
72636;BME280;60679;48.888;15.544;2023-03-21T02:40:41;96195.53;;;6.32;67.11
72636;BME280;60679;48.888;15.544;2023-03-21T02:43:26;96192.41;;;6.28;67.00
72636;BME280;60679;48.888;15.544;2023-03-21T02:46:04;96197.34;;;6.25;67.36
72636;BME280;60679;48.888;15.544;2023-03-21T02:48:34;96196.72;;;6.23;67.40
72636;BME280;60679;48.888;15.544;2023-03-21T02:51:03;96196.91;;;6.21;67.32
72636;BME280;60679;48.888;15.544;2023-03-21T02:53:33;96197.94;;;6.20;67.42
72636;BME280;60679;48.888;15.544;2023-03-21T02:56:00;96196.88;;;6.15;67.43
72636;BME280;60679;48.888;15.544;2023-03-21T02:58:27;96194.38;;;6.07;67.53
72636;BME280;60679;48.888;15.544;2023-03-21T03:00:55;96191.19;;;5.97;67.45
72636;BME280;60679;48.888;15.544;2023-03-21T03:03:21;96192.19;;;5.89;67.47
72636;BME280;60679;48.888;15.544;2023-03-21T03:05:49;96188.59;;;5.82;67.71
72636;BME280;60679;48.888;15.544;2023-03-21T03:13:36;96194.72;;;5.69;67.73
72636;BME280;60679;48.888;15.544;2023-03-21T03:19:03;96187.16;;;5.52;67.98
72636;BME280;60679;48.888;15.544;2023-03-21T03:24:07;96184.09;;;5.34;68.41
72636;BME280;60679;48.888;15.544;2023-03-21T03:26:37;96188.59;;;5.27;68.05
72636;BME280;60679;48.888;15.544;2023-03-21T03:29:10;96197.00;;;5.23;68.09
72636;BME280;60679;48.888;15.544;2023-03-21T03:31:44;96192.03;;;5.20;68.14
72636;BME280;60679;48.888;15.544;2023-03-21T03:34:15;96198.41;;;5.19;68.09
72636;BME280;60679;48.888;15.544;2023-03-21T03:36:46;96197.78;;;5.17;68.26
72636;BME280;60679;48.888;15.544;2023-03-21T03:39:17;96205.09;;;5.09;67.89
72636;BME280;60679;48.888;15.544;2023-03-21T03:41:45;96208.41;;;4.90;68.12
72636;BME280;60679;48.888;15.544;2023-03-21T03:44:12;96206.81;;;4.74;68.23
72636;BME280;60679;48.888;15.544;2023-03-21T03:46:51;96200.75;;;4.65;68.38
72636;BME280;60679;48.888;15.544;2023-03-21T03:49:22;96207.28;;;4.63;68.54
72636;BME280;60679;48.888;15.544;2023-03-21T03:51:56;96207.84;;;4.58;68.56
72636;BME280;60679;48.888;15.544;2023-03-21T03:54:30;96206.19;;;4.57;68.75
72636;BME280;60679;48.888;15.544;2023-03-21T03:56:57;96198.16;;;4.57;68.62
72636;BME280;60679;48.888;15.544;2023-03-21T03:59:23;96203.50;;;4.57;68.66
72636;BME280;60679;48.888;15.544;2023-03-21T04:01:51;96206.66;;;4.61;68.59
72636;BME280;60679;48.888;15.544;2023-03-21T04:04:17;96207.69;;;4.60;68.76
72636;BME280;60679;48.888;15.544;2023-03-21T04:06:43;96208.31;;;4.62;68.74
72636;BME280;60679;48.888;15.544;2023-03-21T04:09:18;96211.16;;;4.60;68.71
72636;BME280;60679;48.888;15.544;2023-03-21T04:11:43;96203.97;;;4.61;68.95
72636;BME280;60679;48.888;15.544;2023-03-21T04:14:09;96202.75;;;4.63;68.79
72636;BME280;60679;48.888;15.544;2023-03-21T04:16:34;96200.75;;;4.65;68.96
72636;BME280;60679;48.888;15.544;2023-03-21T04:19:00;96203.84;;;4.69;68.93
72636;BME280;60679;48.888;15.544;2023-03-21T04:21:26;96205.97;;;4.74;68.97
72636;BME280;60679;48.888;15.544;2023-03-21T04:23:53;96210.28;;;4.75;68.98
72636;BME280;60679;48.888;15.544;2023-03-21T04:26:20;96215.59;;;4.68;68.87
72636;BME280;60679;48.888;15.544;2023-03-21T04:28:46;96211.53;;;4.57;69.07
72636;BME280;60679;48.888;15.544;2023-03-21T04:31:12;96205.75;;;4.54;69.32
72636;BME280;60679;48.888;15.544;2023-03-21T04:33:38;96206.97;;;4.51;69.11
72636;BME280;60679;48.888;15.544;2023-03-21T04:36:07;96208.81;;;4.51;69.19
72636;BME280;60679;48.888;15.544;2023-03-21T04:38:34;96213.69;;;4.47;69.35
72636;BME280;60679;48.888;15.544;2023-03-21T04:41:00;96206.03;;;4.44;69.24
72636;BME280;60679;48.888;15.544;2023-03-21T04:43:26;96211.75;;;4.41;69.42
72636;BME280;60679;48.888;15.544;2023-03-21T04:45:53;96202.28;;;4.39;69.42
72636;BME280;60679;48.888;15.544;2023-03-21T04:48:18;96197.56;;;4.41;69.48
72636;BME280;60679;48.888;15.544;2023-03-21T04:50:45;96196.56;;;4.42;69.44
72636;BME280;60679;48.888;15.544;2023-03-21T04:53:11;96202.91;;;4.41;69.35
72636;BME280;60679;48.888;15.544;2023-03-21T04:55:37;96189.91;;;4.38;69.49
72636;BME280;60679;48.888;15.544;2023-03-21T04:58:03;96193.41;;;4.38;69.54
72636;BME280;60679;48.888;15.544;2023-03-21T05:00:28;96197.03;;;4.45;69.51
72636;BME280;60679;48.888;15.544;2023-03-21T05:02:54;96193.13;;;4.48;69.22
72636;BME280;60679;48.888;15.544;2023-03-21T05:05:22;96193.50;;;4.45;69.39
72636;BME280;60679;48.888;15.544;2023-03-21T05:07:47;96202.28;;;4.39;69.19
72636;BME280;60679;48.888;15.544;2023-03-21T05:10:12;96190.22;;;4.28;69.33
72636;BME280;60679;48.888;15.544;2023-03-21T05:12:38;96202.13;;;4.26;69.56
72636;BME280;60679;48.888;15.544;2023-03-21T05:15:04;96203.84;;;4.33;69.63
72636;BME280;60679;48.888;15.544;2023-03-21T05:17:30;96201.63;;;4.37;69.38
72636;BME280;60679;48.888;15.544;2023-03-21T05:19:55;96202.28;;;4.39;69.54
72636;BME280;60679;48.888;15.544;2023-03-21T05:22:22;96209.41;;;4.32;69.38
72636;BME280;60679;48.888;15.544;2023-03-21T05:24:49;96206.06;;;4.30;69.72
72636;BME280;60679;48.888;15.544;2023-03-21T05:27:18;96207.00;;;4.22;69.62
72636;BME280;60679;48.888;15.544;2023-03-21T05:30:14;96207.94;;;4.15;69.52
72636;BME280;60679;48.888;15.544;2023-03-21T05:32:40;96204.97;;;4.09;69.60
72636;BME280;60679;48.888;15.544;2023-03-21T05:35:05;96207.19;;;4.06;69.35
72636;BME280;60679;48.888;15.544;2023-03-21T05:37:31;96204.81;;;4.11;69.52
72636;BME280;60679;48.888;15.544;2023-03-21T05:39:56;96211.72;;;4.20;69.55
72636;BME280;60679;48.888;15.544;2023-03-21T05:42:22;96206.44;;;4.27;69.46
72636;BME280;60679;48.888;15.544;2023-03-21T05:44:47;96200.06;;;4.42;69.33
72636;BME280;60679;48.888;15.544;2023-03-21T05:47:14;96208.22;;;4.55;69.17
72636;BME280;60679;48.888;15.544;2023-03-21T05:49:40;96209.94;;;4.63;69.05
72636;BME280;60679;48.888;15.544;2023-03-21T05:52:05;96205.53;;;4.70;68.96
72636;BME280;60679;48.888;15.544;2023-03-21T05:54:31;96209.09;;;4.77;68.78
72636;BME280;60679;48.888;15.544;2023-03-21T05:56:56;96213.50;;;4.85;68.85
72636;BME280;60679;48.888;15.544;2023-03-21T05:59:22;96208.88;;;4.93;68.79
72636;BME280;60679;48.888;15.544;2023-03-21T06:01:47;96212.66;;;5.05;68.94
72636;BME280;60679;48.888;15.544;2023-03-21T06:04:14;96210.97;;;5.19;68.81
72636;BME280;60679;48.888;15.544;2023-03-21T06:06:39;96210.25;;;5.32;68.73
72636;BME280;60679;48.888;15.544;2023-03-21T06:09:05;96209.34;;;5.46;68.84
72636;BME280;60679;48.888;15.544;2023-03-21T06:11:33;96208.25;;;5.61;68.53
72636;BME280;60679;48.888;15.544;2023-03-21T06:14:00;96218.66;;;5.77;68.49
72636;BME280;60679;48.888;15.544;2023-03-21T06:16:25;96218.59;;;5.92;68.57
72636;BME280;60679;48.888;15.544;2023-03-21T06:18:50;96216.00;;;6.05;68.35
72636;BME280;60679;48.888;15.544;2023-03-21T06:21:16;96212.81;;;6.23;68.23
72636;BME280;60679;48.888;15.544;2023-03-21T06:23:41;96219.09;;;6.43;68.05
72636;BME280;60679;48.888;15.544;2023-03-21T06:26:06;96208.47;;;6.63;67.88
72636;BME280;60679;48.888;15.544;2023-03-21T06:28:32;96214.72;;;6.83;67.83
72636;BME280;60679;48.888;15.544;2023-03-21T06:30:57;96208.19;;;7.18;67.29
72636;BME280;60679;48.888;15.544;2023-03-21T06:33:23;96213.19;;;7.54;67.03
72636;BME280;60679;48.888;15.544;2023-03-21T06:35:53;96205.72;;;7.82;66.68
72636;BME280;60679;48.888;15.544;2023-03-21T06:38:19;96201.56;;;8.06;66.55
72636;BME280;60679;48.888;15.544;2023-03-21T06:40:45;96206.31;;;8.24;66.44
72636;BME280;60679;48.888;15.544;2023-03-21T06:43:11;96206.91;;;8.39;66.37
72636;BME280;60679;48.888;15.544;2023-03-21T06:45:37;96204.16;;;8.58;66.17
72636;BME280;60679;48.888;15.544;2023-03-21T06:48:02;96209.91;;;8.68;66.06
72636;BME280;60679;48.888;15.544;2023-03-21T06:50:28;96220.09;;;8.60;66.22
72636;BME280;60679;48.888;15.544;2023-03-21T06:52:53;96217.28;;;8.29;66.61
72636;BME280;60679;48.888;15.544;2023-03-21T06:55:18;96216.50;;;7.95;67.35
72636;BME280;60679;48.888;15.544;2023-03-21T06:57:50;96222.69;;;7.76;67.52
72636;BME280;60679;48.888;15.544;2023-03-21T07:00:16;96221.47;;;7.98;66.98
72636;BME280;60679;48.888;15.544;2023-03-21T07:02:42;96215.63;;;8.28;66.90
72636;BME280;60679;48.888;15.544;2023-03-21T07:05:07;96219.13;;;8.35;66.74
72636;BME280;60679;48.888;15.544;2023-03-21T07:07:33;96225.31;;;8.42;66.97
72636;BME280;60679;48.888;15.544;2023-03-21T07:09:58;96224.81;;;8.71;66.39
72636;BME280;60679;48.888;15.544;2023-03-21T07:12:23;96221.97;;;9.04;66.08
72636;BME280;60679;48.888;15.544;2023-03-21T07:14:49;96219.47;;;9.40;65.71
72636;BME280;60679;48.888;15.544;2023-03-21T07:17:14;96228.97;;;9.74;65.31
72636;BME280;60679;48.888;15.544;2023-03-21T07:19:40;96223.75;;;10.04;65.29
72636;BME280;60679;48.888;15.544;2023-03-21T07:22:05;96224.97;;;10.32;64.67
72636;BME280;60679;48.888;15.544;2023-03-21T07:24:30;96229.91;;;10.54;64.32
72636;BME280;60679;48.888;15.544;2023-03-21T07:26:56;96227.53;;;10.82;63.85
72636;BME280;60679;48.888;15.544;2023-03-21T07:29:21;96221.22;;;11.18;63.35
72636;BME280;60679;48.888;15.544;2023-03-21T07:31:48;96228.78;;;11.45;63.11
72636;BME280;60679;48.888;15.544;2023-03-21T07:34:13;96226.31;;;11.74;62.76
72636;BME280;60679;48.888;15.544;2023-03-21T07:36:40;96227.06;;;12.04;62.31
72636;BME280;60679;48.888;15.544;2023-03-21T07:39:06;96229.91;;;12.44;62.05
72636;BME280;60679;48.888;15.544;2023-03-21T07:41:32;96226.19;;;12.85;61.48
72636;BME280;60679;48.888;15.544;2023-03-21T07:43:57;96230.91;;;12.78;60.84
72636;BME280;60679;48.888;15.544;2023-03-21T07:46:22;96229.78;;;13.02;60.71
72636;BME280;60679;48.888;15.544;2023-03-21T07:48:48;96231.28;;;13.21;60.59
72636;BME280;60679;48.888;15.544;2023-03-21T07:51:13;96221.81;;;13.63;60.19
72636;BME280;60679;48.888;15.544;2023-03-21T07:53:39;96230.31;;;14.00;59.77
72636;BME280;60679;48.888;15.544;2023-03-21T07:56:06;96222.34;;;14.27;59.35
72636;BME280;60679;48.888;15.544;2023-03-21T07:58:32;96221.78;;;14.58;58.79
72636;BME280;60679;48.888;15.544;2023-03-21T08:00:59;96226.25;;;15.08;58.25
72636;BME280;60679;48.888;15.544;2023-03-21T08:03:26;96220.88;;;15.34;57.79
72636;BME280;60679;48.888;15.544;2023-03-21T08:05:54;96224.78;;;15.65;57.29
72636;BME280;60679;48.888;15.544;2023-03-21T08:08:19;96218.63;;;16.06;57.01
72636;BME280;60679;48.888;15.544;2023-03-21T08:10:44;96219.13;;;16.30;56.33
72636;BME280;60679;48.888;15.544;2023-03-21T08:13:10;96208.22;;;16.62;56.07
72636;BME280;60679;48.888;15.544;2023-03-21T08:15:36;96213.88;;;17.02;55.59
72636;BME280;60679;48.888;15.544;2023-03-21T08:18:02;96220.84;;;17.35;55.31
72636;BME280;60679;48.888;15.544;2023-03-21T08:20:27;96219.91;;;17.66;54.91
72636;BME280;60679;48.888;15.544;2023-03-21T08:22:53;96215.84;;;17.94;54.17
72636;BME280;60679;48.888;15.544;2023-03-21T08:25:20;96220.53;;;18.34;53.66
72636;BME280;60679;48.888;15.544;2023-03-21T08:27:46;96216.41;;;18.72;52.94
72636;BME280;60679;48.888;15.544;2023-03-21T08:30:16;96218.03;;;18.93;52.92
72636;BME280;60679;48.888;15.544;2023-03-21T08:32:42;96211.25;;;19.54;52.54
72636;BME280;60679;48.888;15.544;2023-03-21T08:35:09;96207.84;;;19.78;51.45
72636;BME280;60679;48.888;15.544;2023-03-21T08:37:36;96207.88;;;19.68;51.19
72636;BME280;60679;48.888;15.544;2023-03-21T08:40:03;96211.50;;;20.02;50.56
72636;BME280;60679;48.888;15.544;2023-03-21T08:42:32;96202.00;;;20.91;49.54
72636;BME280;60679;48.888;15.544;2023-03-21T08:44:57;96204.84;;;21.09;48.31
72636;BME280;60679;48.888;15.544;2023-03-21T08:47:23;96193.81;;;21.57;47.72
72636;BME280;60679;48.888;15.544;2023-03-21T08:49:48;96195.31;;;20.73;49.03
72636;BME280;60679;48.888;15.544;2023-03-21T08:52:13;96203.38;;;21.17;48.08
72636;BME280;60679;48.888;15.544;2023-03-21T08:54:39;96205.72;;;20.08;49.46
72636;BME280;60679;48.888;15.544;2023-03-21T08:57:06;96206.44;;;20.58;49.08
72636;BME280;60679;48.888;15.544;2023-03-21T08:59:32;96207.31;;;20.53;48.50
72636;BME280;60679;48.888;15.544;2023-03-21T09:01:58;96204.03;;;20.80;47.32
72636;BME280;60679;48.888;15.544;2023-03-21T09:04:23;96203.13;;;20.27;48.84
72636;BME280;60679;48.888;15.544;2023-03-21T09:06:50;96204.88;;;18.95;50.41
72636;BME280;60679;48.888;15.544;2023-03-21T09:09:16;96202.50;;;20.40;48.18
72636;BME280;60679;48.888;15.544;2023-03-21T09:11:42;96198.13;;;19.51;49.24
72636;BME280;60679;48.888;15.544;2023-03-21T09:14:08;96205.63;;;20.24;47.52
72636;BME280;60679;48.888;15.544;2023-03-21T09:16:34;96207.50;;;20.62;47.27
72636;BME280;60679;48.888;15.544;2023-03-21T09:18:59;96203.72;;;19.11;48.62
72636;BME280;60679;48.888;15.544;2023-03-21T09:21:27;96207.69;;;18.34;49.31
72636;BME280;60679;48.888;15.544;2023-03-21T09:23:54;96198.91;;;17.97;50.12
72636;BME280;60679;48.888;15.544;2023-03-21T09:26:23;96193.38;;;21.92;44.12
72636;BME280;60679;48.888;15.544;2023-03-21T09:28:49;96197.59;;;24.23;40.97
72636;BME280;60679;48.888;15.544;2023-03-21T09:31:16;96186.69;;;26.19;38.99
72636;BME280;60679;48.888;15.544;2023-03-21T09:33:50;96189.19;;;27.65;36.98
72636;BME280;60679;48.888;15.544;2023-03-21T09:36:16;96183.31;;;27.29;36.53
72636;BME280;60679;48.888;15.544;2023-03-21T09:38:44;96182.13;;;26.92;37.05
72636;BME280;60679;48.888;15.544;2023-03-21T09:44:36;96174.22;;;28.90;33.74
72636;BME280;60679;48.888;15.544;2023-03-21T09:49:58;96183.53;;;29.75;31.73
72636;BME280;60679;48.888;15.544;2023-03-21T09:55:16;96166.69;;;29.48;31.90
72636;BME280;60679;48.888;15.544;2023-03-21T09:57:44;96161.84;;;31.13;30.87
72636;BME280;60679;48.888;15.544;2023-03-21T10:00:19;96164.34;;;28.81;33.32
72636;BME280;60679;48.888;15.544;2023-03-21T10:02:51;96162.09;;;31.23;30.30
72636;BME280;60679;48.888;15.544;2023-03-21T10:05:23;96156.72;;;33.65;26.88
72636;BME280;60679;48.888;15.544;2023-03-21T10:08:01;96167.91;;;32.82;28.49
72636;BME280;60679;48.888;15.544;2023-03-21T10:10:31;96157.38;;;32.21;29.04
72636;BME280;60679;48.888;15.544;2023-03-21T10:13:01;96157.72;;;31.54;28.86
72636;BME280;60679;48.888;15.544;2023-03-21T10:15:26;96153.56;;;27.96;33.42
72636;BME280;60679;48.888;15.544;2023-03-21T10:18:00;96160.84;;;24.58;36.84
72636;BME280;60679;48.888;15.544;2023-03-21T10:20:36;96151.97;;;25.79;34.62
72636;BME280;60679;48.888;15.544;2023-03-21T10:23:05;96144.66;;;30.03;29.71
72636;BME280;60679;48.888;15.544;2023-03-21T10:25:38;96148.28;;;33.88;25.18
72636;BME280;60679;48.888;15.544;2023-03-21T10:28:06;96145.56;;;31.46;27.65
72636;BME280;60679;48.888;15.544;2023-03-21T10:33:14;96138.41;;;33.72;24.75
72636;BME280;60679;48.888;15.544;2023-03-21T10:35:45;96134.81;;;35.20;24.00
72636;BME280;60679;48.888;15.544;2023-03-21T10:38:18;96135.22;;;36.71;22.45
72636;BME280;60679;48.888;15.544;2023-03-21T10:40:44;96131.06;;;37.83;22.02
72636;BME280;60679;48.888;15.544;2023-03-21T10:46:16;96133.25;;;36.07;22.37
72636;BME280;60679;48.888;15.544;2023-03-21T10:48:50;96134.00;;;36.65;22.43
72636;BME280;60679;48.888;15.544;2023-03-21T10:51:20;96130.34;;;40.29;20.28
72636;BME280;60679;48.888;15.544;2023-03-21T10:53:57;96120.13;;;37.29;23.06
72636;BME280;60679;48.888;15.544;2023-03-21T10:56:29;96121.31;;;31.34;28.88
72636;BME280;60679;48.888;15.544;2023-03-21T10:58:57;96124.84;;;27.42;32.31
72636;BME280;60679;48.888;15.544;2023-03-21T11:01:30;96120.88;;;30.73;27.33
72636;BME280;60679;48.888;15.544;2023-03-21T11:04:00;96121.41;;;37.60;20.87
72636;BME280;60679;48.888;15.544;2023-03-21T11:06:30;96115.22;;;40.43;19.13
72636;BME280;60679;48.888;15.544;2023-03-21T11:09:17;96114.88;;;38.47;21.37
72636;BME280;60679;48.888;15.544;2023-03-21T11:14:47;96106.53;;;40.60;19.03
72636;BME280;60679;48.888;15.544;2023-03-21T11:19:47;96092.09;;;42.19;17.87
72636;BME280;60679;48.888;15.544;2023-03-21T11:22:14;96091.50;;;43.45;17.09
72636;BME280;60679;48.888;15.544;2023-03-21T11:24:41;96094.94;;;41.69;18.71
72636;BME280;60679;48.888;15.544;2023-03-21T11:27:07;96077.28;;;44.26;16.59
72636;BME280;60679;48.888;15.544;2023-03-21T11:29:38;96073.84;;;44.47;16.57
72636;BME280;60679;48.888;15.544;2023-03-21T11:35:18;96077.41;;;41.51;18.11
72636;BME280;60679;48.888;15.544;2023-03-21T11:37:49;96075.34;;;42.67;16.95
72636;BME280;60679;48.888;15.544;2023-03-21T11:40:22;96071.28;;;36.79;21.52
72636;BME280;60679;48.888;15.544;2023-03-21T11:47:53;96058.72;;;40.28;17.75
72636;BME280;60679;48.888;15.544;2023-03-21T11:50:30;96048.66;;;40.27;17.99
72636;BME280;60679;48.888;15.544;2023-03-21T11:53:23;96045.41;;;38.78;18.97
72636;BME280;60679;48.888;15.544;2023-03-21T11:56:15;96045.63;;;37.16;20.37
72636;BME280;60679;48.888;15.544;2023-03-21T12:07:03;96026.22;;;39.10;18.37
72636;BME280;60679;48.888;15.544;2023-03-21T12:09:40;96030.56;;;44.52;14.65
72636;BME280;60679;48.888;15.544;2023-03-21T12:17:38;96015.22;;;45.42;14.03
72636;BME280;60679;48.888;15.544;2023-03-21T12:22:55;96010.19;;;47.05;13.05
72636;BME280;60679;48.888;15.544;2023-03-21T12:25:41;95999.03;;;47.77;13.12
72636;BME280;60679;48.888;15.544;2023-03-21T12:31:17;95995.66;;;47.61;12.71
72636;BME280;60679;48.888;15.544;2023-03-21T12:34:08;95996.59;;;48.52;12.24
72636;BME280;60679;48.888;15.544;2023-03-21T12:36:54;95987.19;;;49.95;11.46
72636;BME280;60679;48.888;15.544;2023-03-21T12:39:29;95982.81;;;50.00;11.87
72636;BME280;60679;48.888;15.544;2023-03-21T12:44:47;95978.25;;;38.27;18.01
72636;BME280;60679;48.888;15.544;2023-03-21T12:47:25;95969.22;;;39.22;16.93
72636;BME280;60679;48.888;15.544;2023-03-21T12:50:13;95977.88;;;44.98;13.07
72636;BME280;60679;48.888;15.544;2023-03-21T12:52:42;95962.25;;;46.22;12.40
72636;BME280;60679;48.888;15.544;2023-03-21T12:57:46;95965.34;;;48.72;11.08
72636;BME280;60679;48.888;15.544;2023-03-21T13:02:45;95952.56;;;38.80;16.26
72636;BME280;60679;48.888;15.544;2023-03-21T13:05:19;95944.72;;;41.81;14.37
72636;BME280;60679;48.888;15.544;2023-03-21T13:07:50;95940.22;;;43.63;13.15
72636;BME280;60679;48.888;15.544;2023-03-21T13:10:20;95948.53;;;39.33;15.91
72636;BME280;60679;48.888;15.544;2023-03-21T13:13:24;95951.59;;;31.78;20.89
72636;BME280;60679;48.888;15.544;2023-03-21T13:16:11;95936.78;;;31.74;20.37
72636;BME280;60679;48.888;15.544;2023-03-21T13:21:43;95926.22;;;32.67;19.22
72636;BME280;60679;48.888;15.544;2023-03-21T13:26:55;95929.47;;;43.99;12.33
72636;BME280;60679;48.888;15.544;2023-03-21T13:29:30;95925.66;;;40.28;14.69
72636;BME280;60679;48.888;15.544;2023-03-21T13:32:06;95921.22;;;42.60;13.48
72636;BME280;60679;48.888;15.544;2023-03-21T13:34:32;95923.38;;;42.16;13.57
72636;BME280;60679;48.888;15.544;2023-03-21T13:37:00;95919.13;;;46.29;11.31
72636;BME280;60679;48.888;15.544;2023-03-21T13:39:27;95917.31;;;46.96;11.03
72636;BME280;60679;48.888;15.544;2023-03-21T13:41:53;95915.72;;;35.78;18.08
72636;BME280;60679;48.888;15.544;2023-03-21T13:44:40;95914.31;;;30.82;21.43
72636;BME280;60679;48.888;15.544;2023-03-21T13:47:30;95919.47;;;31.15;20.13
72636;BME280;60679;48.888;15.544;2023-03-21T13:50:35;95897.50;;;37.53;15.15
72636;BME280;60679;48.888;15.544;2023-03-21T13:55:27;95906.28;;;46.77;10.95
72636;BME280;60679;48.888;15.544;2023-03-21T13:57:53;95906.09;;;47.69;10.72
72636;BME280;60679;48.888;15.544;2023-03-21T14:00:27;95898.88;;;45.80;11.86
72636;BME280;60679;48.888;15.544;2023-03-21T14:03:07;95900.50;;;44.71;12.23
72636;BME280;60679;48.888;15.544;2023-03-21T14:05:34;95901.91;;;40.53;14.71
72636;BME280;60679;48.888;15.544;2023-03-21T14:08:04;95897.50;;;34.52;18.38
72636;BME280;60679;48.888;15.544;2023-03-21T14:10:52;95894.50;;;29.53;21.69
72636;BME280;60679;48.888;15.544;2023-03-21T14:13:23;95893.56;;;27.47;22.84
72636;BME280;60679;48.888;15.544;2023-03-21T14:15:59;95892.56;;;26.52;23.15
72636;BME280;60679;48.888;15.544;2023-03-21T14:18:26;95895.72;;;25.87;23.44
72636;BME280;60679;48.888;15.544;2023-03-21T14:20:54;95879.69;;;31.37;18.75
72636;BME280;60679;48.888;15.544;2023-03-21T14:23:21;95880.03;;;28.84;21.03
72636;BME280;60679;48.888;15.544;2023-03-21T14:25:47;95872.09;;;27.35;22.01
72636;BME280;60679;48.888;15.544;2023-03-21T14:28:23;95873.22;;;35.97;15.50
72636;BME280;60679;48.888;15.544;2023-03-21T14:30:51;95879.25;;;39.89;13.65
72636;BME280;60679;48.888;15.544;2023-03-21T14:35:48;95869.19;;;29.58;21.01